createdAt,value
2019-04-06T00:00:40.462Z,7.50
2019-04-06T00:03:06.727Z,7.54
2019-04-06T00:05:32.984Z,7.57
2019-04-06T00:07:59.157Z,7.60
2019-04-06T00:10:25.334Z,7.59
2019-04-06T00:12:51.657Z,7.63
2019-04-06T00:15:18.060Z,7.63
2019-04-06T00:17:44.270Z,7.65
2019-04-06T00:20:10.371Z,7.67
2019-04-06T00:22:36.896Z,7.67
2019-04-06T00:25:04.948Z,7.72
2019-04-06T00:27:31.084Z,7.74
2019-04-06T00:29:57.649Z,7.79
2019-04-06T00:32:28.628Z,7.83
2019-04-06T00:34:54.791Z,7.85
2019-04-06T00:37:21.224Z,7.87
2019-04-06T00:39:47.412Z,7.90
2019-04-06T00:42:13.594Z,7.92
2019-04-06T00:44:39.937Z,7.94
2019-04-06T00:47:06.197Z,7.95
2019-04-06T00:49:32.325Z,7.96
2019-04-06T00:51:58.841Z,7.98
2019-04-06T00:54:24.966Z,7.99
2019-04-06T00:56:51.256Z,8.01
2019-04-06T00:59:17.707Z,8.06
2019-04-06T01:01:43.941Z,8.09
2019-04-06T01:04:10.090Z,8.11
2019-04-06T01:06:36.696Z,8.15
2019-04-06T01:09:06.580Z,8.17
2019-04-06T01:11:32.721Z,8.20
2019-04-06T01:13:59.201Z,8.22
2019-04-06T01:16:25.240Z,8.26
2019-04-06T01:18:52.612Z,8.25
2019-04-06T01:21:19.558Z,8.26
2019-04-06T01:23:45.700Z,8.27
2019-04-06T01:26:11.946Z,8.26
2019-04-06T01:28:38.578Z,8.29
2019-04-06T01:31:04.714Z,8.27
2019-04-06T01:33:30.820Z,8.28
2019-04-06T01:35:57.142Z,8.29
2019-04-06T01:38:23.162Z,8.26
2019-04-06T01:40:49.475Z,8.25
2019-04-06T01:43:15.715Z,8.25
2019-04-06T01:45:42.159Z,8.25
2019-04-06T01:48:08.301Z,8.26
2019-04-06T01:50:34.429Z,8.27
2019-04-06T01:53:01.001Z,8.26
2019-04-06T01:55:27.375Z,8.27
2019-04-06T01:57:53.529Z,8.26
2019-04-06T02:00:22.075Z,8.24
2019-04-06T02:02:54.039Z,8.26
2019-04-06T02:05:22.252Z,8.26
2019-04-06T02:07:49.515Z,8.27
2019-04-06T02:10:16.040Z,8.26
2019-04-06T02:12:42.096Z,8.27
2019-04-06T02:15:08.780Z,8.26
2019-04-06T02:17:35.032Z,8.25
2019-04-06T02:20:01.314Z,6.88
2019-04-06T02:22:28.185Z,8.23
2019-04-06T02:24:54.435Z,8.21
2019-04-06T02:27:20.796Z,8.24
2019-04-06T02:29:49.485Z,8.22
2019-04-06T02:32:17.562Z,8.20
2019-04-06T02:34:45.499Z,8.19
2019-04-06T02:37:19.835Z,8.18
2019-04-06T02:39:50.652Z,8.15
2019-04-06T02:42:18.762Z,8.14
2019-04-06T02:44:45.011Z,8.15
2019-04-06T02:47:13.120Z,8.15
2019-04-06T02:49:39.743Z,8.14
2019-04-06T02:52:06.018Z,8.11
2019-04-06T02:54:32.068Z,8.06
2019-04-06T02:56:58.206Z,8.06
2019-04-06T02:59:24.339Z,8.04
2019-04-06T03:01:50.509Z,8.04
2019-04-06T03:04:16.722Z,8.04
2019-04-06T03:06:43.342Z,8.05
2019-04-06T03:09:11.483Z,8.09
2019-04-06T03:11:37.578Z,8.12
2019-04-06T03:14:04.328Z,8.10
2019-04-06T03:16:30.899Z,8.11
2019-04-06T03:18:57.289Z,8.12
2019-04-06T03:21:23.970Z,8.12
2019-04-06T03:23:52.231Z,8.13
2019-04-06T03:26:18.299Z,7.87
2019-04-06T03:28:44.399Z,8.12
2019-04-06T03:31:11.101Z,8.13
2019-04-06T03:33:37.654Z,8.12
2019-04-06T03:36:03.924Z,8.13
2019-04-06T03:38:30.517Z,8.13
2019-04-06T03:40:56.529Z,8.15
2019-04-06T03:43:22.670Z,8.13
2019-04-06T03:45:49.129Z,8.15
2019-04-06T03:48:15.256Z,8.15
2019-04-06T03:50:41.378Z,8.15
2019-04-06T03:53:07.534Z,8.14
2019-04-06T03:55:33.690Z,8.13
2019-04-06T03:58:00.325Z,8.15
2019-04-06T04:00:27.122Z,8.15
2019-04-06T04:02:53.321Z,8.17
2019-04-06T04:05:19.520Z,8.17
2019-04-06T04:07:45.611Z,8.20
2019-04-06T04:10:31.149Z,8.18
2019-04-06T04:12:57.791Z,8.19
2019-04-06T04:15:24.868Z,8.21
2019-04-06T04:17:51.048Z,8.21
2019-04-06T04:20:17.069Z,8.20
2019-04-06T04:22:43.490Z,8.20
2019-04-06T04:25:09.636Z,8.20
2019-04-06T04:27:37.674Z,8.17
2019-04-06T04:30:06.327Z,8.17
2019-04-06T04:32:32.601Z,8.18
2019-04-06T04:34:58.724Z,8.19
2019-04-06T04:37:25.282Z,8.17
2019-04-06T04:39:51.382Z,8.15
2019-04-06T04:42:17.541Z,8.15
2019-04-06T04:44:44.215Z,8.15
2019-04-06T04:47:10.423Z,8.13
2019-04-06T04:49:37.093Z,8.14
2019-04-06T04:52:03.292Z,8.13
2019-04-06T04:54:29.330Z,8.12
2019-04-06T04:56:55.387Z,8.11
2019-04-06T04:59:21.551Z,8.11
2019-04-06T05:01:47.596Z,8.10
2019-04-06T05:04:13.721Z,8.13
2019-04-06T05:06:39.993Z,8.13
2019-04-06T05:09:06.426Z,8.11
2019-04-06T05:11:32.596Z,8.09
2019-04-06T05:14:36.488Z,8.08
2019-04-06T05:17:02.769Z,8.11
2019-04-06T05:19:29.012Z,8.11
2019-04-06T05:21:55.426Z,8.13
2019-04-06T05:24:21.568Z,8.15
2019-04-06T05:26:47.809Z,8.16
2019-04-06T05:29:14.168Z,8.18
2019-04-06T05:31:40.404Z,8.19
2019-04-06T05:34:06.670Z,8.22
2019-04-06T05:36:33.208Z,8.22
2019-04-06T05:38:59.360Z,8.25
2019-04-06T05:41:25.367Z,8.26
2019-04-06T05:43:53.155Z,8.28
2019-04-06T05:46:19.153Z,8.33
2019-04-06T05:48:45.683Z,8.37
2019-04-06T05:51:12.094Z,8.36
2019-04-06T05:53:38.333Z,8.41
2019-04-06T05:56:04.613Z,8.41
2019-04-06T05:58:31.799Z,8.43
2019-04-06T06:01:00.466Z,8.44
2019-04-06T06:03:26.516Z,8.50
2019-04-06T06:05:53.257Z,8.58
2019-04-06T06:08:19.266Z,8.62
2019-04-06T06:10:45.502Z,8.67
2019-04-06T06:13:11.946Z,8.72
2019-04-06T06:15:38.680Z,8.76
2019-04-06T06:18:05.212Z,8.75
2019-04-06T06:20:31.328Z,8.78
2019-04-06T06:22:57.420Z,8.79
2019-04-06T06:25:23.985Z,8.80
2019-04-06T06:27:50.058Z,8.81
2019-04-06T06:30:16.585Z,8.84
2019-04-06T06:32:42.985Z,8.86
2019-04-06T06:35:09.122Z,8.83
2019-04-06T06:37:35.687Z,8.84
2019-04-06T06:40:03.446Z,8.82
2019-04-06T06:42:29.559Z,8.83
2019-04-06T06:44:55.782Z,8.86
2019-04-06T06:47:22.432Z,8.91
2019-04-06T06:49:48.554Z,8.91
2019-04-06T06:52:14.654Z,8.89
2019-04-06T06:54:41.529Z,8.88
2019-04-06T06:57:07.673Z,8.82
2019-04-06T06:59:33.804Z,7.80
2019-04-06T07:02:00.412Z,8.79
2019-04-06T07:04:26.592Z,8.82
2019-04-06T07:06:52.728Z,8.85
2019-04-06T07:09:19.207Z,8.92
2019-04-06T07:11:45.450Z,8.96
2019-04-06T07:14:11.631Z,8.98
2019-04-06T07:16:37.882Z,8.99
2019-04-06T07:19:04.091Z,9.01
2019-04-06T07:21:30.755Z,9.06
2019-04-06T07:23:56.876Z,9.08
2019-04-06T07:26:23.017Z,9.09
2019-04-06T07:28:49.420Z,9.09
2019-04-06T07:31:15.681Z,9.11
2019-04-06T07:33:42.136Z,9.17
2019-04-06T07:36:08.398Z,9.20
2019-04-06T07:38:34.554Z,9.25
2019-04-06T07:41:00.695Z,9.26
2019-04-06T07:43:27.251Z,9.24
2019-04-06T07:45:53.398Z,9.21
2019-04-06T07:48:19.545Z,9.17
2019-04-06T07:50:45.704Z,9.19
2019-04-06T07:53:11.870Z,9.24
2019-04-06T07:55:37.989Z,9.31
2019-04-06T07:58:04.656Z,9.42
2019-04-06T08:00:31.058Z,9.46
2019-04-06T08:02:57.458Z,9.50
2019-04-06T08:05:23.652Z,9.59
2019-04-06T08:07:49.771Z,9.76
2019-04-06T08:10:15.971Z,9.93
2019-04-06T08:12:42.542Z,10.06
2019-04-06T08:15:08.685Z,10.14
2019-04-06T08:17:35.128Z,10.18
2019-04-06T08:20:01.652Z,10.32
2019-04-06T08:22:27.764Z,10.41
2019-04-06T08:24:53.871Z,10.41
2019-04-06T08:27:20.330Z,10.40
2019-04-06T08:29:46.870Z,10.43
2019-04-06T08:32:13.408Z,10.71
2019-04-06T08:34:40.241Z,11.00
2019-04-06T08:37:06.375Z,11.20
2019-04-06T08:39:32.552Z,11.33
2019-04-06T08:41:59.053Z,11.45
2019-04-06T08:44:25.093Z,11.72
2019-04-06T08:46:51.327Z,12.01
2019-04-06T08:49:17.871Z,12.14
2019-04-06T08:51:44.135Z,12.12
2019-04-06T08:54:10.285Z,12.06
2019-04-06T08:56:36.485Z,12.01
2019-04-06T08:59:11.217Z,11.90
2019-04-06T09:01:31.112Z,11.86
2019-04-06T09:03:57.967Z,11.94
2019-04-06T09:06:24.159Z,11.93
2019-04-06T09:08:50.358Z,12.00
2019-04-06T09:11:16.403Z,12.13
2019-04-06T09:13:42.723Z,12.26
2019-04-06T09:16:08.980Z,12.37
2019-04-06T09:18:35.584Z,12.57
2019-04-06T09:21:02.536Z,12.77
2019-04-06T09:23:28.683Z,12.88
2019-04-06T09:25:55.228Z,12.84
2019-04-06T09:28:21.408Z,13.04
2019-04-06T09:30:47.455Z,13.40
2019-04-06T09:33:14.125Z,13.68
2019-04-06T09:35:40.300Z,13.91
2019-04-06T09:38:08.378Z,13.99
2019-04-06T09:40:35.151Z,13.96
2019-04-06T09:43:01.319Z,13.75
2019-04-06T09:45:35.691Z,13.54
2019-04-06T09:48:07.423Z,13.34
2019-04-06T09:50:38.219Z,13.29
2019-04-06T09:53:22.737Z,13.20
2019-04-06T09:55:53.899Z,13.20
2019-04-06T09:58:36.812Z,13.41
2019-04-06T10:01:07.029Z,13.81
2019-04-06T10:03:44.203Z,14.19
2019-04-06T10:06:14.979Z,14.46
2019-04-06T10:08:59.721Z,14.64
2019-04-06T10:11:37.361Z,14.62
2019-04-06T10:14:11.432Z,14.60
2019-04-06T10:16:57.279Z,14.76
2019-04-06T10:19:42.330Z,14.95
2019-04-06T10:22:26.789Z,15.13
2019-04-06T10:24:55.024Z,15.43
2019-04-06T10:27:29.503Z,15.49
2019-04-06T10:30:14.641Z,15.64
2019-04-06T10:32:59.517Z,15.84
2019-04-06T10:35:36.806Z,16.11
2019-04-06T10:38:22.982Z,16.28
2019-04-06T10:40:56.877Z,16.41
2019-04-06T10:43:24.940Z,16.44
2019-04-06T10:46:04.978Z,16.58
2019-04-06T10:48:33.639Z,16.70
2019-04-06T10:51:07.438Z,16.80
2019-04-06T10:53:47.618Z,16.71
2019-04-06T10:56:24.905Z,16.70
2019-04-06T10:58:52.924Z,16.67
2019-04-06T11:01:37.981Z,17.04
2019-04-06T11:04:06.029Z,17.22
2019-04-06T11:06:49.248Z,17.16
2019-04-06T11:09:17.937Z,17.21
2019-04-06T11:11:45.974Z,17.24
2019-04-06T11:14:16.567Z,17.28
2019-04-06T11:17:01.061Z,17.42
2019-04-06T11:19:35.281Z,17.81
2019-04-06T11:22:20.902Z,18.31
2019-04-06T11:25:06.012Z,18.51
2019-04-06T11:27:46.810Z,18.59
2019-04-06T11:30:31.525Z,18.70
2019-04-06T11:33:06.100Z,18.71
2019-04-06T11:35:34.125Z,18.81
2019-04-06T11:38:18.748Z,18.94
2019-04-06T11:40:56.097Z,19.26
2019-04-06T11:43:27.078Z,19.59
2019-04-06T11:46:01.122Z,19.87
2019-04-06T11:48:32.019Z,19.82
2019-04-06T11:51:00.037Z,20.27
2019-04-06T11:53:43.610Z,20.48
2019-04-06T11:56:11.802Z,20.50
2019-04-06T11:58:40.328Z,20.59
2019-04-06T12:01:17.775Z,20.71
2019-04-06T12:03:45.840Z,20.82
2019-04-06T12:06:17.475Z,20.99
2019-04-06T12:08:51.445Z,21.07
2019-04-06T12:11:22.570Z,21.22
2019-04-06T12:13:59.725Z,21.32
2019-04-06T12:16:28.231Z,21.31
2019-04-06T12:19:08.156Z,21.32
2019-04-06T12:21:42.011Z,21.49
2019-04-06T12:24:22.071Z,21.62
2019-04-06T12:27:06.766Z,21.89
2019-04-06T12:29:35.189Z,22.02
2019-04-06T12:32:21.444Z,21.96
2019-04-06T12:34:50.171Z,21.99
2019-04-06T12:37:23.952Z,21.83
2019-04-06T12:39:54.617Z,21.85
2019-04-06T12:42:22.887Z,21.93
2019-04-06T12:45:00.456Z,21.89
2019-04-06T12:47:47.654Z,21.88
2019-04-06T12:50:16.198Z,21.96
2019-04-06T12:52:47.888Z,21.97
2019-04-06T12:55:16.265Z,21.97
2019-04-06T12:57:59.900Z,21.98
2019-04-06T13:00:49.512Z,21.98
2019-04-06T13:03:16.826Z,22.02
2019-04-06T13:05:45.196Z,22.08
2019-04-06T13:08:24.996Z,22.25
2019-04-06T13:11:04.837Z,22.32
2019-04-06T13:13:33.192Z,22.23
2019-04-06T13:16:18.251Z,22.17
2019-04-06T13:18:49.069Z,22.10
2019-04-06T13:21:23.054Z,22.03
2019-04-06T13:24:03.159Z,22.04
2019-04-06T13:26:43.290Z,22.04
2019-04-06T13:29:23.424Z,22.08
2019-04-06T13:31:54.557Z,21.94
2019-04-06T13:34:25.548Z,21.73
2019-04-06T13:37:08.849Z,21.37
2019-04-06T13:39:53.965Z,21.11
2019-04-06T13:42:24.762Z,20.89
2019-04-06T13:45:09.547Z,20.49
2019-04-06T13:47:37.906Z,20.28
2019-04-06T13:50:07.443Z,19.92
2019-04-06T13:52:38.771Z,19.79
2019-04-06T13:55:07.546Z,19.72
2019-04-06T13:57:38.309Z,19.64
2019-04-06T14:00:13.386Z,19.63
2019-04-06T14:02:56.300Z,19.59
2019-04-06T14:05:40.878Z,19.52
2019-04-06T14:08:11.446Z,19.50
2019-04-06T14:10:39.975Z,19.49
2019-04-06T14:13:24.515Z,19.55
2019-04-06T14:15:53.240Z,19.55
2019-04-06T14:18:33.340Z,19.47
2019-04-06T14:21:02.653Z,19.44
2019-04-06T14:23:39.621Z,19.43
2019-04-06T14:26:16.299Z,19.45
2019-04-06T14:28:53.255Z,19.42
2019-04-06T14:31:28.183Z,19.43
2019-04-06T14:33:51.618Z,19.38
2019-04-06T14:36:22.405Z,19.32
2019-04-06T14:38:56.677Z,19.24
2019-04-06T14:41:24.707Z,19.18
2019-04-06T14:43:52.833Z,19.19
2019-04-06T14:46:27.516Z,19.23
2019-04-06T14:49:27.468Z,19.25
2019-04-06T14:51:48.911Z,19.30
2019-04-06T14:54:17.104Z,19.35
2019-04-06T14:56:54.866Z,19.27
2019-04-06T14:59:23.415Z,19.25
2019-04-06T15:02:00.753Z,19.26
2019-04-06T15:04:44.776Z,19.21
2019-04-06T15:07:29.592Z,19.18
2019-04-06T15:10:15.166Z,18.94
2019-04-06T15:12:43.597Z,19.17
2019-04-06T15:15:21.081Z,19.17
2019-04-06T15:17:49.284Z,19.17
2019-04-06T15:20:34.351Z,19.14
2019-04-06T15:23:17.286Z,19.14
2019-04-06T15:25:45.938Z,19.10
2019-04-06T15:28:16.963Z,19.10
2019-04-06T15:30:45.028Z,19.05
2019-04-06T15:33:13.088Z,19.02
2019-04-06T15:35:41.144Z,19.02
2019-04-06T15:38:15.376Z,19.02
2019-04-06T15:40:49.405Z,19.02
2019-04-06T15:43:18.863Z,18.99
2019-04-06T15:45:48.053Z,19.00
2019-04-06T15:48:19.057Z,18.99
2019-04-06T15:50:59.663Z,18.98
2019-04-06T15:53:27.763Z,18.97
2019-04-06T15:56:01.880Z,18.93
2019-04-06T15:58:35.664Z,18.88
2019-04-06T16:01:20.508Z,18.84
2019-04-06T16:03:51.352Z,18.81
2019-04-06T16:06:25.433Z,18.81
2019-04-06T16:08:59.281Z,18.79
2019-04-06T16:11:36.267Z,18.77
2019-04-06T16:14:07.207Z,18.72
2019-04-06T16:16:41.041Z,18.70
2019-04-06T16:19:11.890Z,18.66
2019-04-06T16:21:40.183Z,18.64
2019-04-06T16:24:25.276Z,18.61
2019-04-06T16:26:53.561Z,18.56
2019-04-06T16:29:24.811Z,18.54
2019-04-06T16:32:12.296Z,18.51
2019-04-06T16:34:55.206Z,18.45
2019-04-06T16:37:23.549Z,18.45
2019-04-06T16:40:08.137Z,18.44
2019-04-06T16:42:36.597Z,18.45
2019-04-06T16:45:12.531Z,18.48
2019-04-06T16:47:52.511Z,18.51
2019-04-06T16:50:36.216Z,18.56
2019-04-06T16:53:16.253Z,18.60
2019-04-06T16:55:50.401Z,18.61
2019-04-06T16:58:35.532Z,18.62
2019-04-06T17:01:13.087Z,18.61
2019-04-06T17:03:44.218Z,18.58
2019-04-06T17:06:18.537Z,18.58
2019-04-06T17:08:52.470Z,18.55
2019-04-06T17:11:36.007Z,18.55
2019-04-06T17:14:04.044Z,18.52
2019-04-06T17:16:35.118Z,18.50
2019-04-06T17:19:12.247Z,18.48
2019-04-06T17:21:41.032Z,18.43
2019-04-06T17:24:17.966Z,18.36
2019-04-06T17:26:46.121Z,18.28
2019-04-06T17:29:25.981Z,18.19
2019-04-06T17:31:56.922Z,18.10
2019-04-06T17:34:53.056Z,17.99
2019-04-06T17:37:31.439Z,17.88
2019-04-06T17:40:14.802Z,17.77
2019-04-06T17:42:59.386Z,17.66
2019-04-06T17:45:46.377Z,17.55
2019-04-06T17:48:23.255Z,17.42
2019-04-06T17:51:00.962Z,17.30
2019-04-06T17:53:47.301Z,17.18
2019-04-06T17:56:32.289Z,17.04
2019-04-06T17:59:18.805Z,16.92
2019-04-06T18:01:47.790Z,16.81
2019-04-06T18:04:18.533Z,16.68
2019-04-06T18:07:01.620Z,16.58
2019-04-06T18:09:43.935Z,16.51
2019-04-06T18:12:12.377Z,16.42
2019-04-06T18:14:39.534Z,16.34
2019-04-06T18:17:06.138Z,16.27
2019-04-06T18:19:34.692Z,16.20
2019-04-06T18:22:00.679Z,16.13
2019-04-06T18:24:27.144Z,16.05
2019-04-06T18:26:53.166Z,16.00
2019-04-06T18:29:19.819Z,15.95
2019-04-06T18:31:48.970Z,15.91
2019-04-06T18:34:16.057Z,15.88
2019-04-06T18:36:53.363Z,15.82
2019-04-06T18:39:21.291Z,15.79
2019-04-06T18:41:47.425Z,15.73
2019-04-06T18:44:13.656Z,15.68
2019-04-06T18:46:40.377Z,15.63
2019-04-06T18:49:06.847Z,15.60
2019-04-06T18:51:33.043Z,15.57
2019-04-06T18:53:59.724Z,15.52
2019-04-06T18:56:26.653Z,15.47
2019-04-06T18:58:53.000Z,15.43
2019-04-06T19:01:19.499Z,15.40
2019-04-06T19:03:46.076Z,15.33
2019-04-06T19:06:12.385Z,15.28
2019-04-06T19:08:39.259Z,15.21
2019-04-06T19:11:05.861Z,15.12
2019-04-06T19:13:32.584Z,15.04
2019-04-06T19:15:59.331Z,14.98
2019-04-06T19:18:25.495Z,14.90
2019-04-06T19:20:51.940Z,14.83
2019-04-06T19:23:18.509Z,14.74
2019-04-06T19:25:45.815Z,14.65
2019-04-06T19:28:12.843Z,14.55
2019-04-06T19:30:39.462Z,14.49
2019-04-06T19:33:05.926Z,14.40
2019-04-06T19:35:33.022Z,14.34
2019-04-06T19:37:59.639Z,14.28
2019-04-06T19:40:26.401Z,14.22
2019-04-06T19:42:53.671Z,14.13
2019-04-06T19:45:20.090Z,14.06
2019-04-06T19:47:47.161Z,13.99
2019-04-06T19:50:13.900Z,13.91
2019-04-06T19:52:40.723Z,13.83
2019-04-06T19:55:07.491Z,13.72
2019-04-06T19:57:33.919Z,13.60
2019-04-06T20:00:00.096Z,13.49
2019-04-06T20:02:26.749Z,13.42
2019-04-06T20:04:53.133Z,13.34
2019-04-06T20:07:19.824Z,13.27
2019-04-06T20:09:46.476Z,13.22
2019-04-06T20:12:12.737Z,13.15
2019-04-06T20:14:38.894Z,13.09
2019-04-06T20:17:05.721Z,13.04
2019-04-06T20:19:31.878Z,12.99
2019-04-06T20:21:58.033Z,12.97
2019-04-06T20:24:24.480Z,12.96
2019-04-06T20:26:51.046Z,12.92
2019-04-06T20:29:18.129Z,12.89
2019-04-06T20:31:44.690Z,12.85
2019-04-06T20:34:11.051Z,12.80
2019-04-06T20:36:37.677Z,12.77
2019-04-06T20:39:06.634Z,12.72
2019-04-06T20:41:33.467Z,12.64
2019-04-06T20:44:00.087Z,12.58
2019-04-06T20:46:26.341Z,12.51
2019-04-06T20:48:52.456Z,11.15
2019-04-06T20:51:19.239Z,12.36
2019-04-06T20:53:45.691Z,12.30
2019-04-06T20:56:12.171Z,12.25
2019-04-06T20:58:39.165Z,12.20
2019-04-06T21:01:05.521Z,10.72
2019-04-06T21:03:32.141Z,12.13
2019-04-06T21:05:58.556Z,12.11
2019-04-06T21:08:25.193Z,12.06
2019-04-06T21:10:51.305Z,12.03
2019-04-06T21:13:17.902Z,11.99
2019-04-06T21:15:45.085Z,11.94
2019-04-06T21:18:11.512Z,11.91
2019-04-06T21:20:38.408Z,11.88
2019-04-06T21:23:05.129Z,11.86
2019-04-06T21:25:31.382Z,11.84
2019-04-06T21:27:57.815Z,11.82
2019-04-06T21:30:24.529Z,11.81
2019-04-06T21:32:51.449Z,11.78
2019-04-06T21:35:18.036Z,11.77
2019-04-06T21:37:45.052Z,11.74
2019-04-06T21:40:11.675Z,11.72
2019-04-06T21:42:38.282Z,11.69
2019-04-06T21:45:06.350Z,11.66
2019-04-06T21:47:32.928Z,11.64
2019-04-06T21:49:59.174Z,11.59
2019-04-06T21:52:26.229Z,11.55
2019-04-06T21:54:52.643Z,11.52
2019-04-06T21:57:19.776Z,11.49
2019-04-06T21:59:46.324Z,11.46
2019-04-06T22:02:12.903Z,11.43
2019-04-06T22:04:39.213Z,11.40
2019-04-06T22:07:06.440Z,11.36
2019-04-06T22:09:33.553Z,11.32
2019-04-06T22:12:00.409Z,11.28
2019-04-06T22:14:26.977Z,11.24
2019-04-06T22:16:53.238Z,11.19
2019-04-06T22:19:19.280Z,11.15
2019-04-06T22:21:46.328Z,11.09
2019-04-06T22:24:12.476Z,11.05
2019-04-06T22:26:39.363Z,11.02
2019-04-06T22:29:06.599Z,10.99
2019-04-06T22:31:33.290Z,10.96
2019-04-06T22:33:59.783Z,10.93
2019-04-06T22:36:25.917Z,10.89
2019-04-06T22:38:52.052Z,10.86
2019-04-06T22:41:18.394Z,10.83
2019-04-06T22:43:45.706Z,10.81
2019-04-06T22:46:12.459Z,10.79
2019-04-06T22:48:39.213Z,10.76
2019-04-06T22:51:05.696Z,10.72
2019-04-06T22:53:31.761Z,10.66
2019-04-06T22:55:57.816Z,10.62
2019-04-06T22:58:24.587Z,10.58
2019-04-06T23:00:52.831Z,10.54
2019-04-06T23:03:20.857Z,10.48
2019-04-06T23:05:48.907Z,10.42
2019-04-06T23:08:15.042Z,10.37
2019-04-06T23:10:41.176Z,10.30
2019-04-06T23:13:07.593Z,10.26
2019-04-06T23:15:33.867Z,7.98
2019-04-06T23:18:00.348Z,10.18
2019-04-06T23:20:27.173Z,10.11
2019-04-06T23:22:53.814Z,10.05
2019-04-06T23:25:20.028Z,9.97
2019-04-06T23:27:46.822Z,9.91
2019-04-06T23:30:13.193Z,9.86
2019-04-06T23:32:41.096Z,9.84
2019-04-06T23:35:08.128Z,9.85
2019-04-06T23:37:34.567Z,9.83
2019-04-06T23:40:01.636Z,9.81
2019-04-06T23:42:28.046Z,9.78
2019-04-06T23:44:54.217Z,9.76
2019-04-06T23:47:20.715Z,9.73
2019-04-06T23:49:46.898Z,9.73
2019-04-06T23:52:13.646Z,9.74
2019-04-06T23:54:40.642Z,9.72
2019-04-06T23:57:07.522Z,9.69
2019-04-06T23:59:33.965Z,9.66
